x

Port Orford - 15 Nm West Of Port Orford, Or (46015) Wave Buoy

11:50pm - Sun 19th Feb 2017 All times are PST. -8 hours from GMT.

  • Sig Wave height 14.1ft
  • Swell Direction
  • Peak Period 16s
  • Average Period 10s
  • Wind
    9mph, 16mph gusts
  • Sea Temp 52°f
  • Air Temp 49°f
  • Sea Pressure 999.8mb
  • Port Orford - 15 Nm West Of Port Orford, Or
  • Port Orford - 15 Nm West Of Port Orford, Or

More Historic Weather Station data

Upgrade to MSW Pro to gain access to the past 30 days of data for over 8000 Wavebouys and Weather Stations around the globe.

Join Pro

Comparision Forecast

View Surf forecast
   
Sun 02/19 11:50pm 14ft 16s 10s 9 16 mph 999.8mb 52f 49f
10:50pm 12.5ft 17s 9s 13 18 mph 1000.9mb 52f 50f
9:50pm 13ft 17s 9s 20 25 mph 1002mb 52f 51f
8:50pm 12ft 17s 9s 16 20 mph 1002.2mb 52f 51f
7:50pm 12ft 17s 8s 22 29 mph 1002.3mb 52f 50f
6:50pm 11.5ft 10s 8s 22 27 mph 1002.3mb 52f 51f
5:50pm 10.5ft 8s 7s 16 18 mph 1002.8mb 52f 52f
4:50pm 10.5ft 12s 7s 16 20 mph 1002.8mb 52f 52f
3:50pm 10ft 11s 7s 18 22 mph 1002.8mb 52f 52f
2:50pm 11ft 11s 7s 18 22 mph 1002.7mb 52f 52f
1:50pm 10.5ft 11s 7s 18 22 mph 1002.5mb 52f 52f
12:50pm 10ft 7s 7s 20 27 mph 1002.4mb 52f 51f
11:50am 10ft 8s 7s 25 29 mph 1002.2mb 52f 52f
10:50am 10.5ft 8s 7s 22 27 mph 1001.8mb 52f 52f
9:50am 10ft 8s 7s 22 29 mph 1001.3mb 52f 51f
8:50am 11ft 8s 7s 22 27 mph 1000.8mb 52f 51f
7:50am 11ft 8s 7s 22 27 mph 1000.2mb 52f 51f
6:50am 10.5ft 8s 7s 20 25 mph 999.3mb 52f 50f
5:50am 10.5ft 8s 6s 25 29 mph 998.8mb 52f 50f
4:50am 10ft 8s 6s 27 34 mph 998.2mb 52f 51f
3:50am 10.5ft 8s 7s 29 36 mph 997.8mb 52f 50f
2:50am 11.5ft 8s 7s 25 29 mph 997.9mb 52f 51f
1:50am 12ft 8s 7s 20 29 mph 996.8mb 52f 49f
12:50am 11ft 8s 6s 29 38 mph 997mb 52f 50f
Sat 02/18 11:50pm 11.5ft 7s 6s 29 36 mph 997.3mb 52f 49f
10:50pm 11ft 6s 6s 34 43 mph 997.7mb 52f 49f
9:50pm  -   -   -  36 45 mph 997.5mb 52f 49f
8:50pm  -   -   -  36 43 mph 997.6mb 52f 49f
7:50pm  -   -   -  31 36 mph 998.4mb 52f 47f
6:50pm  -   -   -  27 34 mph 999.4mb 52f 47f
5:50pm  -   -   -  25 31 mph 999.6mb 52f 48f
4:50pm  -   -   -  18 22 mph 1000mb 52f 49f
3:50pm  -   -   -  13 18 mph 1000.4mb 52f 49f
2:50pm 8ft 11s 7s 11 16 mph 1000.7mb 52f 47f
1:50pm 8ft 8s 7s 7 11 mph 1001.2mb 52f 48f
12:50pm 8ft 13s 7s 4 7 mph 1001.6mb 52f 49f
11:50am 9ft 11s 7s 4 7 mph 1002.1mb 52f 49f
10:50am 8.5ft 11s 7s 9 11 mph 1002mb 52f 48f
9:50am 9ft 13s 7s 7 9 mph 1002mb 52f 46f
8:50am 9ft 13s 7s 16 18 mph 1001.3mb 52f 49f
7:50am 9ft 8s 7s 13 18 mph 1000.6mb 52f 50f
6:50am 9.5ft 8s 7s 18 22 mph 999.9mb 52f 50f
5:50am 11ft 8s 7s 20 25 mph 999.5mb 52f 50f
4:50am 10ft 7s 7s 20 25 mph 999.1mb 52f 50f
3:50am 10ft 12s 7s 22 27 mph 998.4mb 52f 49f
2:50am 10ft 9s 7s 22 27 mph 997.6mb 52f 50f
1:50am 10ft 13s 7s 22 27 mph 997.2mb 52f 51f
12:50am 10ft 8s 7s 22 29 mph 996.9mb 52f 51f
Fri 02/17 11:50pm 10ft 13s 7s 22 29 mph 996.8mb 52f 50f
10:50pm 9ft 14s 7s 25 29 mph 996.6mb 52f 50f
9:50pm 10ft 11s 7s 25 29 mph 996.5mb 52f 51f
8:50pm  -   -   -  25 31 mph 996.3mb 52f 51f
7:50pm  -   -   -  27 34 mph 996.1mb 52f 51f
6:50pm 9.5ft 13s 6s 27 31 mph 995.7mb 52f 51f
5:50pm 9ft 14s 6s 29 36 mph 995.4mb 52f 51f
4:50pm 9.5ft 14s 7s 27 34 mph 995.1mb 52f 51f
3:50pm 9ft 12s 7s 27 31 mph 994.9mb 52f 51f
2:50pm 9ft 11s 7s 27 34 mph 995.5mb 52f 51f
1:50pm 10ft 14s 7s 27 34 mph 995.6mb 52f 50f
12:50pm 8ft 13s 7s 27 31 mph 997mb 52f 51f
11:50am 8.5ft 11s 8s 25 29 mph 998.1mb 52f 51f
10:50am 9ft 15s 8s 22 27 mph 999mb 52f 50f
9:50am  -   -   -  20 25 mph 1000mb 52f 50f
8:50am 10ft 14s 9s 18 22 mph 1001.1mb 52f 50f
7:50am 11.5ft 15s 9s 18 22 mph 1001.4mb 52f 50f
6:50am 10ft 13s 9s 18 20 mph 1002mb 52f 50f
5:50am 10ft 11s 8s 13 16 mph 1003.1mb 52f 50f
4:50am 11.5ft 14s 9s 9 11 mph 1004.2mb 52f 50f
3:50am 11.5ft 15s 9s 9 13 mph 1004.6mb 52f 50f
2:50am 10ft 15s 8s 4 9 mph 1005.2mb 52f 51f
1:50am 10ft 15s 9s 2 4 mph 1005.4mb 52f 51f
12:50am 11ft 14s 9s 4 9 mph 1006.8mb 52f 51f
Thu 02/16 11:50pm 11.5ft 14s 9s 9 13 mph 1007.8mb 52f 51f
10:50pm 12ft 15s 9s 11 13 mph 1008.5mb 52f 51f
9:50pm 13ft 12s 9s 13 16 mph 1008.9mb 52f 51f
8:50pm 12ft 14s 9s 16 18 mph 1009.2mb 52f 51f
7:50pm 14ft 11s 9s 13 16 mph 1009.3mb 52f 51f
6:50pm 13ft 11s 9s 16 20 mph 1009.1mb 52f 50f
5:50pm 14.5ft 12s 9s 16 20 mph 1009.2mb 52f 49f
4:50pm 13.5ft 15s 8s 13 18 mph 1008.5mb 52f 51f
3:50pm 14ft 15s 8s 16 18 mph 1008mb 52f 51f
2:50pm 14ft 15s 8s 18 25 mph 1006.6mb 52f 51f
1:50pm 15.5ft 16s 9s 18 22 mph 1005.9mb 52f 52f
12:50pm 15.5ft 15s 9s 16 20 mph 1004.4mb 52f 52f
11:50am 15.5ft 16s 9s 11 13 mph 1003.4mb 52f 51f
10:50am 15ft 16s 8s 20 25 mph 1002.5mb 52f 51f
9:50am 13ft 12s 8s 22 27 mph 1001.5mb 52f 53f